sensor_id;sensor_type;location;lat;lon;timestamp;P1;durP1;ratioP1;P2;durP2;ratioP2
5379;SDS011;2713;42.680;23.310;2023-03-31T00:01:24;14.23;;;9.50;;
5379;SDS011;2713;42.680;23.310;2023-03-31T00:03:51;14.87;;;9.70;;
5379;SDS011;2713;42.680;23.310;2023-03-31T00:06:26;15.67;;;9.70;;
5379;SDS011;2713;42.680;23.310;2023-03-31T00:08:54;15.33;;;9.80;;
5379;SDS011;2713;42.680;23.310;2023-03-31T00:11:27;14.67;;;9.37;;
5379;SDS011;2713;42.680;23.310;2023-03-31T00:13:55;16.50;;;9.53;;
5379;SDS011;2713;42.680;23.310;2023-03-31T00:16:21;14.30;;;10.30;;
5379;SDS011;2713;42.680;23.310;2023-03-31T00:18:49;12.70;;;9.20;;
5379;SDS011;2713;42.680;23.310;2023-03-31T00:21:16;11.03;;;8.90;;
5379;SDS011;2713;42.680;23.310;2023-03-31T00:23:50;14.83;;;9.10;;
5379;SDS011;2713;42.680;23.310;2023-03-31T00:26:16;12.60;;;9.60;;
5379;SDS011;2713;42.680;23.310;2023-03-31T00:28:45;10.73;;;9.20;;
5379;SDS011;2713;42.680;23.310;2023-03-31T00:31:11;13.67;;;9.87;;
5379;SDS011;2713;42.680;23.310;2023-03-31T00:33:38;13.07;;;8.97;;
5379;SDS011;2713;42.680;23.310;2023-03-31T00:36:05;13.57;;;8.70;;
5379;SDS011;2713;42.680;23.310;2023-03-31T00:38:34;16.37;;;8.87;;
5379;SDS011;2713;42.680;23.310;2023-03-31T00:41:01;11.80;;;8.93;;
5379;SDS011;2713;42.680;23.310;2023-03-31T00:43:29;13.63;;;9.20;;
5379;SDS011;2713;42.680;23.310;2023-03-31T00:46:01;14.03;;;10.00;;
5379;SDS011;2713;42.680;23.310;2023-03-31T00:48:33;19.33;;;9.50;;
5379;SDS011;2713;42.680;23.310;2023-03-31T00:51:03;16.20;;;9.83;;
5379;SDS011;2713;42.680;23.310;2023-03-31T00:53:31;11.37;;;8.50;;
5379;SDS011;2713;42.680;23.310;2023-03-31T00:56:00;12.23;;;8.33;;
5379;SDS011;2713;42.680;23.310;2023-03-31T00:58:32;15.43;;;9.13;;
5379;SDS011;2713;42.680;23.310;2023-03-31T01:01:00;12.80;;;8.60;;
5379;SDS011;2713;42.680;23.310;2023-03-31T01:03:29;10.00;;;8.10;;
5379;SDS011;2713;42.680;23.310;2023-03-31T01:05:58;12.00;;;8.40;;
5379;SDS011;2713;42.680;23.310;2023-03-31T01:08:29;15.80;;;9.23;;
5379;SDS011;2713;42.680;23.310;2023-03-31T01:11:00;15.70;;;8.53;;
5379;SDS011;2713;42.680;23.310;2023-03-31T01:13:31;11.53;;;8.67;;
5379;SDS011;2713;42.680;23.310;2023-03-31T01:16:02;14.90;;;9.03;;
5379;SDS011;2713;42.680;23.310;2023-03-31T01:18:29;15.77;;;9.20;;
5379;SDS011;2713;42.680;23.310;2023-03-31T01:21:12;11.90;;;9.47;;
5379;SDS011;2713;42.680;23.310;2023-03-31T01:24:00;12.27;;;8.80;;
5379;SDS011;2713;42.680;23.310;2023-03-31T01:27:00;11.87;;;8.43;;
5379;SDS011;2713;42.680;23.310;2023-03-31T01:29:44;12.20;;;8.33;;
5379;SDS011;2713;42.680;23.310;2023-03-31T01:32:40;11.10;;;8.10;;
5379;SDS011;2713;42.680;23.310;2023-03-31T01:35:53;10.73;;;7.90;;
5379;SDS011;2713;42.680;23.310;2023-03-31T01:41:41;10.97;;;8.33;;
5379;SDS011;2713;42.680;23.310;2023-03-31T01:44:19;9.97;;;7.70;;
5379;SDS011;2713;42.680;23.310;2023-03-31T01:46:54;13.10;;;8.70;;
5379;SDS011;2713;42.680;23.310;2023-03-31T01:49:26;17.13;;;8.40;;
5379;SDS011;2713;42.680;23.310;2023-03-31T01:52:02;12.43;;;7.77;;
5379;SDS011;2713;42.680;23.310;2023-03-31T01:54:36;11.20;;;8.70;;
5379;SDS011;2713;42.680;23.310;2023-03-31T01:57:10;16.03;;;9.33;;
5379;SDS011;2713;42.680;23.310;2023-03-31T01:59:42;11.17;;;8.50;;
5379;SDS011;2713;42.680;23.310;2023-03-31T02:02:16;14.13;;;8.93;;
5379;SDS011;2713;42.680;23.310;2023-03-31T02:04:49;10.50;;;7.97;;
5379;SDS011;2713;42.680;23.310;2023-03-31T02:07:23;10.63;;;8.33;;
5379;SDS011;2713;42.680;23.310;2023-03-31T02:10:00;10.50;;;7.77;;
5379;SDS011;2713;42.680;23.310;2023-03-31T02:12:33;8.40;;;7.37;;
5379;SDS011;2713;42.680;23.310;2023-03-31T02:15:04;12.00;;;8.07;;
5379;SDS011;2713;42.680;23.310;2023-03-31T02:17:37;13.37;;;8.83;;
5379;SDS011;2713;42.680;23.310;2023-03-31T02:20:12;11.57;;;7.90;;
5379;SDS011;2713;42.680;23.310;2023-03-31T02:22:44;11.17;;;7.90;;
5379;SDS011;2713;42.680;23.310;2023-03-31T02:25:15;11.40;;;8.60;;
5379;SDS011;2713;42.680;23.310;2023-03-31T02:27:48;12.20;;;9.17;;
5379;SDS011;2713;42.680;23.310;2023-03-31T02:30:21;10.90;;;7.80;;
5379;SDS011;2713;42.680;23.310;2023-03-31T02:32:53;11.90;;;7.87;;
5379;SDS011;2713;42.680;23.310;2023-03-31T02:35:22;12.00;;;9.10;;
5379;SDS011;2713;42.680;23.310;2023-03-31T02:37:49;13.50;;;8.73;;
5379;SDS011;2713;42.680;23.310;2023-03-31T02:40:25;11.23;;;7.77;;
5379;SDS011;2713;42.680;23.310;2023-03-31T02:42:56;5.60;;;5.03;;
5379;SDS011;2713;42.680;23.310;2023-03-31T02:45:41;3.60;;;3.20;;
5379;SDS011;2713;42.680;23.310;2023-03-31T02:48:12;2.50;;;2.30;;
5379;SDS011;2713;42.680;23.310;2023-03-31T02:50:53;7.37;;;2.67;;
5379;SDS011;2713;42.680;23.310;2023-03-31T02:53:47;2.03;;;1.90;;
5379;SDS011;2713;42.680;23.310;2023-03-31T02:56:48;3.10;;;2.50;;
5379;SDS011;2713;42.680;23.310;2023-03-31T02:59:32;2.10;;;2.00;;
5379;SDS011;2713;42.680;23.310;2023-03-31T03:02:11;2.23;;;2.00;;
5379;SDS011;2713;42.680;23.310;2023-03-31T03:04:56;2.70;;;2.30;;
5379;SDS011;2713;42.680;23.310;2023-03-31T03:07:52;2.70;;;2.40;;
5379;SDS011;2713;42.680;23.310;2023-03-31T03:10:27;2.50;;;2.30;;
5379;SDS011;2713;42.680;23.310;2023-03-31T03:13:06;2.23;;;2.03;;
5379;SDS011;2713;42.680;23.310;2023-03-31T03:15:43;3.93;;;2.40;;
5379;SDS011;2713;42.680;23.310;2023-03-31T03:18:13;2.60;;;2.10;;
5379;SDS011;2713;42.680;23.310;2023-03-31T03:20:41;2.63;;;2.30;;
5379;SDS011;2713;42.680;23.310;2023-03-31T03:23:12;2.53;;;2.13;;
5379;SDS011;2713;42.680;23.310;2023-03-31T03:25:40;2.43;;;2.03;;
5379;SDS011;2713;42.680;23.310;2023-03-31T03:28:11;4.10;;;2.57;;
5379;SDS011;2713;42.680;23.310;2023-03-31T03:30:38;2.47;;;2.30;;
5379;SDS011;2713;42.680;23.310;2023-03-31T03:33:07;4.13;;;2.60;;
5379;SDS011;2713;42.680;23.310;2023-03-31T03:35:34;3.10;;;2.73;;
5379;SDS011;2713;42.680;23.310;2023-03-31T03:38:01;3.20;;;2.47;;
5379;SDS011;2713;42.680;23.310;2023-03-31T03:40:28;4.83;;;3.03;;
5379;SDS011;2713;42.680;23.310;2023-03-31T03:42:54;11.70;;;7.90;;
5379;SDS011;2713;42.680;23.310;2023-03-31T03:45:21;3.53;;;3.30;;
5379;SDS011;2713;42.680;23.310;2023-03-31T03:47:48;4.77;;;4.20;;
5379;SDS011;2713;42.680;23.310;2023-03-31T03:50:16;7.90;;;5.90;;
5379;SDS011;2713;42.680;23.310;2023-03-31T03:52:43;8.10;;;6.10;;
5379;SDS011;2713;42.680;23.310;2023-03-31T03:55:10;9.87;;;6.97;;
5379;SDS011;2713;42.680;23.310;2023-03-31T03:57:38;8.70;;;6.57;;
5379;SDS011;2713;42.680;23.310;2023-03-31T04:00:05;10.63;;;7.90;;
5379;SDS011;2713;42.680;23.310;2023-03-31T04:02:36;10.00;;;7.27;;
5379;SDS011;2713;42.680;23.310;2023-03-31T04:05:03;8.73;;;7.00;;
5379;SDS011;2713;42.680;23.310;2023-03-31T04:07:32;14.90;;;7.30;;
5379;SDS011;2713;42.680;23.310;2023-03-31T04:09:59;9.40;;;8.40;;
5379;SDS011;2713;42.680;23.310;2023-03-31T04:12:26;7.90;;;6.50;;
5379;SDS011;2713;42.680;23.310;2023-03-31T04:14:52;9.00;;;6.23;;
5379;SDS011;2713;42.680;23.310;2023-03-31T04:17:19;10.63;;;6.13;;
5379;SDS011;2713;42.680;23.310;2023-03-31T04:19:57;9.93;;;6.60;;
5379;SDS011;2713;42.680;23.310;2023-03-31T04:22:26;9.50;;;6.67;;
5379;SDS011;2713;42.680;23.310;2023-03-31T04:25:00;8.80;;;6.40;;
5379;SDS011;2713;42.680;23.310;2023-03-31T04:27:28;10.50;;;6.67;;
5379;SDS011;2713;42.680;23.310;2023-03-31T04:29:55;8.40;;;6.03;;
5379;SDS011;2713;42.680;23.310;2023-03-31T04:32:22;11.43;;;6.00;;
5379;SDS011;2713;42.680;23.310;2023-03-31T04:34:49;12.90;;;6.90;;
5379;SDS011;2713;42.680;23.310;2023-03-31T04:37:16;9.13;;;6.53;;
5379;SDS011;2713;42.680;23.310;2023-03-31T04:39:43;12.10;;;7.60;;
5379;SDS011;2713;42.680;23.310;2023-03-31T04:42:16;10.17;;;6.20;;
5379;SDS011;2713;42.680;23.310;2023-03-31T04:44:42;8.97;;;5.70;;
5379;SDS011;2713;42.680;23.310;2023-03-31T04:47:09;8.93;;;6.03;;
5379;SDS011;2713;42.680;23.310;2023-03-31T04:49:36;7.27;;;6.30;;
5379;SDS011;2713;42.680;23.310;2023-03-31T04:52:03;8.30;;;5.70;;
5379;SDS011;2713;42.680;23.310;2023-03-31T04:54:30;9.47;;;6.70;;
5379;SDS011;2713;42.680;23.310;2023-03-31T04:56:57;9.03;;;7.03;;
5379;SDS011;2713;42.680;23.310;2023-03-31T04:59:26;11.10;;;7.20;;
5379;SDS011;2713;42.680;23.310;2023-03-31T05:01:52;7.30;;;6.30;;
5379;SDS011;2713;42.680;23.310;2023-03-31T05:04:20;6.10;;;5.20;;
5379;SDS011;2713;42.680;23.310;2023-03-31T05:06:47;8.40;;;6.00;;
5379;SDS011;2713;42.680;23.310;2023-03-31T05:09:13;7.67;;;6.33;;
5379;SDS011;2713;42.680;23.310;2023-03-31T05:11:40;9.97;;;5.90;;
5379;SDS011;2713;42.680;23.310;2023-03-31T05:14:07;10.57;;;6.50;;
5379;SDS011;2713;42.680;23.310;2023-03-31T05:16:35;11.63;;;6.10;;
5379;SDS011;2713;42.680;23.310;2023-03-31T05:19:02;8.23;;;6.13;;
5379;SDS011;2713;42.680;23.310;2023-03-31T05:21:29;9.57;;;6.90;;
5379;SDS011;2713;42.680;23.310;2023-03-31T05:23:56;7.00;;;6.30;;
5379;SDS011;2713;42.680;23.310;2023-03-31T05:26:23;7.70;;;6.90;;
5379;SDS011;2713;42.680;23.310;2023-03-31T05:28:51;13.37;;;6.70;;
5379;SDS011;2713;42.680;23.310;2023-03-31T05:31:18;11.87;;;9.00;;
5379;SDS011;2713;42.680;23.310;2023-03-31T05:33:47;9.70;;;8.10;;
5379;SDS011;2713;42.680;23.310;2023-03-31T05:36:14;9.37;;;7.47;;
5379;SDS011;2713;42.680;23.310;2023-03-31T05:38:42;8.73;;;7.83;;
5379;SDS011;2713;42.680;23.310;2023-03-31T05:41:10;11.77;;;8.00;;
5379;SDS011;2713;42.680;23.310;2023-03-31T05:43:37;10.43;;;8.00;;
5379;SDS011;2713;42.680;23.310;2023-03-31T05:46:04;11.53;;;8.40;;
5379;SDS011;2713;42.680;23.310;2023-03-31T05:48:31;18.87;;;12.83;;
5379;SDS011;2713;42.680;23.310;2023-03-31T05:51:00;15.93;;;9.70;;
5379;SDS011;2713;42.680;23.310;2023-03-31T05:53:27;10.90;;;9.10;;
5379;SDS011;2713;42.680;23.310;2023-03-31T05:55:57;12.77;;;9.10;;
5379;SDS011;2713;42.680;23.310;2023-03-31T05:58:26;10.87;;;9.03;;
5379;SDS011;2713;42.680;23.310;2023-03-31T06:01:00;11.17;;;9.43;;
5379;SDS011;2713;42.680;23.310;2023-03-31T06:03:30;10.97;;;8.80;;
5379;SDS011;2713;42.680;23.310;2023-03-31T06:05:57;10.77;;;9.40;;
5379;SDS011;2713;42.680;23.310;2023-03-31T06:08:25;11.53;;;9.40;;
5379;SDS011;2713;42.680;23.310;2023-03-31T06:10:52;10.93;;;8.57;;
5379;SDS011;2713;42.680;23.310;2023-03-31T06:13:19;10.90;;;8.90;;
5379;SDS011;2713;42.680;23.310;2023-03-31T06:15:51;13.90;;;9.57;;
5379;SDS011;2713;42.680;23.310;2023-03-31T06:18:19;14.47;;;8.80;;
5379;SDS011;2713;42.680;23.310;2023-03-31T06:20:46;19.00;;;8.90;;
5379;SDS011;2713;42.680;23.310;2023-03-31T06:23:12;11.70;;;8.77;;
5379;SDS011;2713;42.680;23.310;2023-03-31T06:25:41;10.10;;;8.00;;
5379;SDS011;2713;42.680;23.310;2023-03-31T06:28:08;10.83;;;7.50;;
5379;SDS011;2713;42.680;23.310;2023-03-31T06:30:34;8.77;;;7.87;;
5379;SDS011;2713;42.680;23.310;2023-03-31T06:33:01;12.77;;;9.50;;
5379;SDS011;2713;42.680;23.310;2023-03-31T06:35:28;13.07;;;8.17;;
5379;SDS011;2713;42.680;23.310;2023-03-31T06:37:55;10.53;;;8.23;;
5379;SDS011;2713;42.680;23.310;2023-03-31T06:40:22;10.87;;;6.17;;
5379;SDS011;2713;42.680;23.310;2023-03-31T06:42:50;5.50;;;4.00;;
5379;SDS011;2713;42.680;23.310;2023-03-31T06:45:17;6.77;;;4.40;;
5379;SDS011;2713;42.680;23.310;2023-03-31T06:47:44;5.20;;;4.70;;
5379;SDS011;2713;42.680;23.310;2023-03-31T06:50:10;8.37;;;6.73;;
5379;SDS011;2713;42.680;23.310;2023-03-31T06:52:37;6.67;;;6.00;;
5379;SDS011;2713;42.680;23.310;2023-03-31T06:55:05;5.43;;;3.27;;
5379;SDS011;2713;42.680;23.310;2023-03-31T06:57:33;3.97;;;3.53;;
5379;SDS011;2713;42.680;23.310;2023-03-31T07:00:02;4.10;;;3.43;;
5379;SDS011;2713;42.680;23.310;2023-03-31T07:02:30;6.73;;;3.77;;
5379;SDS011;2713;42.680;23.310;2023-03-31T07:04:56;5.97;;;3.73;;
5379;SDS011;2713;42.680;23.310;2023-03-31T07:07:23;6.53;;;4.10;;
5379;SDS011;2713;42.680;23.310;2023-03-31T07:09:50;4.57;;;3.90;;
5379;SDS011;2713;42.680;23.310;2023-03-31T07:12:17;4.47;;;3.67;;
5379;SDS011;2713;42.680;23.310;2023-03-31T07:14:44;4.47;;;3.87;;
5379;SDS011;2713;42.680;23.310;2023-03-31T07:17:12;7.47;;;3.73;;
5379;SDS011;2713;42.680;23.310;2023-03-31T07:19:39;6.60;;;3.70;;
5379;SDS011;2713;42.680;23.310;2023-03-31T07:22:06;7.50;;;3.93;;
5379;SDS011;2713;42.680;23.310;2023-03-31T07:24:33;9.00;;;4.77;;
5379;SDS011;2713;42.680;23.310;2023-03-31T07:27:00;10.60;;;5.73;;
5379;SDS011;2713;42.680;23.310;2023-03-31T07:29:26;5.97;;;4.80;;
5379;SDS011;2713;42.680;23.310;2023-03-31T07:31:53;8.03;;;6.33;;
5379;SDS011;2713;42.680;23.310;2023-03-31T07:34:22;9.07;;;6.00;;
5379;SDS011;2713;42.680;23.310;2023-03-31T07:36:49;7.40;;;5.80;;
5379;SDS011;2713;42.680;23.310;2023-03-31T07:39:17;5.40;;;4.90;;
5379;SDS011;2713;42.680;23.310;2023-03-31T07:41:43;7.83;;;5.30;;
5379;SDS011;2713;42.680;23.310;2023-03-31T07:44:10;5.37;;;4.87;;
5379;SDS011;2713;42.680;23.310;2023-03-31T07:46:38;8.53;;;6.00;;
5379;SDS011;2713;42.680;23.310;2023-03-31T07:49:05;7.40;;;5.73;;
5379;SDS011;2713;42.680;23.310;2023-03-31T07:51:33;12.30;;;5.37;;
5379;SDS011;2713;42.680;23.310;2023-03-31T07:54:00;8.57;;;5.90;;
5379;SDS011;2713;42.680;23.310;2023-03-31T07:56:27;8.73;;;5.80;;
5379;SDS011;2713;42.680;23.310;2023-03-31T07:58:54;7.03;;;5.07;;
5379;SDS011;2713;42.680;23.310;2023-03-31T08:01:21;6.37;;;4.13;;
5379;SDS011;2713;42.680;23.310;2023-03-31T08:03:50;8.27;;;4.43;;
5379;SDS011;2713;42.680;23.310;2023-03-31T08:06:19;5.20;;;4.40;;
5379;SDS011;2713;42.680;23.310;2023-03-31T08:08:48;4.80;;;4.03;;
5379;SDS011;2713;42.680;23.310;2023-03-31T08:11:15;7.80;;;4.50;;
5379;SDS011;2713;42.680;23.310;2023-03-31T08:13:43;5.00;;;3.90;;
5379;SDS011;2713;42.680;23.310;2023-03-31T08:16:09;5.40;;;4.10;;
5379;SDS011;2713;42.680;23.310;2023-03-31T08:18:36;6.53;;;4.27;;
5379;SDS011;2713;42.680;23.310;2023-03-31T08:21:03;6.00;;;3.80;;
5379;SDS011;2713;42.680;23.310;2023-03-31T08:23:30;5.03;;;3.93;;
5379;SDS011;2713;42.680;23.310;2023-03-31T08:26:07;4.40;;;3.43;;
5379;SDS011;2713;42.680;23.310;2023-03-31T08:28:35;4.23;;;3.37;;
5379;SDS011;2713;42.680;23.310;2023-03-31T08:31:03;5.23;;;3.73;;
5379;SDS011;2713;42.680;23.310;2023-03-31T08:33:30;6.57;;;3.67;;
5379;SDS011;2713;42.680;23.310;2023-03-31T08:36:00;6.03;;;3.97;;
5379;SDS011;2713;42.680;23.310;2023-03-31T08:38:28;4.70;;;4.03;;
5379;SDS011;2713;42.680;23.310;2023-03-31T08:40:57;3.60;;;3.30;;
5379;SDS011;2713;42.680;23.310;2023-03-31T08:43:27;3.80;;;3.50;;
5379;SDS011;2713;42.680;23.310;2023-03-31T08:45:58;5.50;;;3.50;;
5379;SDS011;2713;42.680;23.310;2023-03-31T08:48:28;3.63;;;3.33;;
5379;SDS011;2713;42.680;23.310;2023-03-31T08:50:59;5.77;;;3.57;;
5379;SDS011;2713;42.680;23.310;2023-03-31T08:53:31;5.00;;;3.40;;
5379;SDS011;2713;42.680;23.310;2023-03-31T08:56:03;4.63;;;3.53;;
5379;SDS011;2713;42.680;23.310;2023-03-31T08:58:35;7.33;;;3.30;;
5379;SDS011;2713;42.680;23.310;2023-03-31T09:01:07;6.20;;;3.57;;
5379;SDS011;2713;42.680;23.310;2023-03-31T09:03:45;5.93;;;3.63;;
5379;SDS011;2713;42.680;23.310;2023-03-31T09:06:23;4.70;;;3.00;;
5379;SDS011;2713;42.680;23.310;2023-03-31T09:08:59;8.70;;;4.33;;
5379;SDS011;2713;42.680;23.310;2023-03-31T09:11:30;4.63;;;3.07;;
5379;SDS011;2713;42.680;23.310;2023-03-31T09:14:16;6.57;;;3.40;;
5379;SDS011;2713;42.680;23.310;2023-03-31T09:16:51;3.93;;;3.07;;
5379;SDS011;2713;42.680;23.310;2023-03-31T09:19:26;6.40;;;3.10;;
5379;SDS011;2713;42.680;23.310;2023-03-31T09:22:00;6.23;;;3.90;;
5379;SDS011;2713;42.680;23.310;2023-03-31T09:24:30;4.03;;;3.50;;
5379;SDS011;2713;42.680;23.310;2023-03-31T09:27:02;3.10;;;2.60;;
5379;SDS011;2713;42.680;23.310;2023-03-31T09:29:38;3.10;;;2.90;;
5379;SDS011;2713;42.680;23.310;2023-03-31T09:32:11;8.50;;;3.20;;
5379;SDS011;2713;42.680;23.310;2023-03-31T09:34:40;5.30;;;3.53;;
5379;SDS011;2713;42.680;23.310;2023-03-31T09:37:08;5.40;;;3.17;;
5379;SDS011;2713;42.680;23.310;2023-03-31T09:39:35;3.77;;;2.80;;
5379;SDS011;2713;42.680;23.310;2023-03-31T09:42:03;11.00;;;2.93;;
5379;SDS011;2713;42.680;23.310;2023-03-31T09:44:32;6.30;;;2.73;;
5379;SDS011;2713;42.680;23.310;2023-03-31T09:47:05;3.77;;;2.97;;
5379;SDS011;2713;42.680;23.310;2023-03-31T09:49:33;5.10;;;3.33;;
5379;SDS011;2713;42.680;23.310;2023-03-31T09:52:03;3.20;;;2.90;;
5379;SDS011;2713;42.680;23.310;2023-03-31T09:54:36;4.83;;;3.63;;
5379;SDS011;2713;42.680;23.310;2023-03-31T09:57:13;3.33;;;2.70;;
5379;SDS011;2713;42.680;23.310;2023-03-31T09:59:43;4.90;;;2.63;;
5379;SDS011;2713;42.680;23.310;2023-03-31T10:05:25;5.40;;;2.70;;
5379;SDS011;2713;42.680;23.310;2023-03-31T10:08:09;2.93;;;2.63;;
5379;SDS011;2713;42.680;23.310;2023-03-31T10:10:44;5.30;;;2.60;;
5379;SDS011;2713;42.680;23.310;2023-03-31T10:13:15;3.10;;;2.70;;
5379;SDS011;2713;42.680;23.310;2023-03-31T10:15:45;5.53;;;3.13;;
5379;SDS011;2713;42.680;23.310;2023-03-31T10:18:13;5.60;;;2.50;;
5379;SDS011;2713;42.680;23.310;2023-03-31T10:20:42;3.90;;;2.90;;
5379;SDS011;2713;42.680;23.310;2023-03-31T10:23:14;5.20;;;2.90;;
5379;SDS011;2713;42.680;23.310;2023-03-31T10:25:43;6.43;;;2.90;;
5379;SDS011;2713;42.680;23.310;2023-03-31T10:28:11;2.43;;;2.23;;
5379;SDS011;2713;42.680;23.310;2023-03-31T10:30:46;5.57;;;3.10;;
5379;SDS011;2713;42.680;23.310;2023-03-31T10:33:15;5.23;;;3.30;;
5379;SDS011;2713;42.680;23.310;2023-03-31T10:35:46;3.70;;;3.17;;
5379;SDS011;2713;42.680;23.310;2023-03-31T10:38:14;3.37;;;2.77;;
5379;SDS011;2713;42.680;23.310;2023-03-31T10:40:49;4.43;;;2.80;;
5379;SDS011;2713;42.680;23.310;2023-03-31T10:43:18;2.67;;;2.43;;
5379;SDS011;2713;42.680;23.310;2023-03-31T10:45:51;3.83;;;2.97;;
5379;SDS011;2713;42.680;23.310;2023-03-31T10:48:23;9.03;;;4.00;;
5379;SDS011;2713;42.680;23.310;2023-03-31T10:50:51;3.40;;;3.00;;
5379;SDS011;2713;42.680;23.310;2023-03-31T10:53:18;5.97;;;3.10;;
5379;SDS011;2713;42.680;23.310;2023-03-31T10:55:57;4.93;;;4.50;;
5379;SDS011;2713;42.680;23.310;2023-03-31T10:58:38;4.40;;;3.50;;
5379;SDS011;2713;42.680;23.310;2023-03-31T11:01:24;4.93;;;3.10;;
5379;SDS011;2713;42.680;23.310;2023-03-31T11:04:02;3.97;;;3.10;;
5379;SDS011;2713;42.680;23.310;2023-03-31T11:06:48;3.00;;;2.70;;
5379;SDS011;2713;42.680;23.310;2023-03-31T11:09:30;4.20;;;3.13;;
5379;SDS011;2713;42.680;23.310;2023-03-31T11:12:07;3.43;;;3.03;;
5379;SDS011;2713;42.680;23.310;2023-03-31T11:14:47;3.77;;;2.70;;
5379;SDS011;2713;42.680;23.310;2023-03-31T11:17:30;3.63;;;2.70;;
5379;SDS011;2713;42.680;23.310;2023-03-31T11:20:11;3.33;;;2.70;;
5379;SDS011;2713;42.680;23.310;2023-03-31T11:22:46;3.73;;;3.00;;
5379;SDS011;2713;42.680;23.310;2023-03-31T11:25:22;4.17;;;3.10;;
5379;SDS011;2713;42.680;23.310;2023-03-31T11:28:04;5.87;;;3.23;;
5379;SDS011;2713;42.680;23.310;2023-03-31T11:31:13;4.20;;;2.63;;
5379;SDS011;2713;42.680;23.310;2023-03-31T11:33:58;5.50;;;3.07;;
5379;SDS011;2713;42.680;23.310;2023-03-31T11:36:35;4.33;;;3.20;;
5379;SDS011;2713;42.680;23.310;2023-03-31T11:39:23;3.77;;;3.47;;
5379;SDS011;2713;42.680;23.310;2023-03-31T11:42:00;9.33;;;3.37;;
5379;SDS011;2713;42.680;23.310;2023-03-31T11:44:34;6.60;;;3.80;;
5379;SDS011;2713;42.680;23.310;2023-03-31T11:47:06;4.50;;;3.30;;
5379;SDS011;2713;42.680;23.310;2023-03-31T11:49:40;5.03;;;3.10;;
5379;SDS011;2713;42.680;23.310;2023-03-31T11:52:12;6.10;;;3.77;;
5379;SDS011;2713;42.680;23.310;2023-03-31T11:54:41;3.40;;;2.90;;
5379;SDS011;2713;42.680;23.310;2023-03-31T11:57:17;4.10;;;3.60;;
5379;SDS011;2713;42.680;23.310;2023-03-31T11:59:51;5.60;;;3.40;;
5379;SDS011;2713;42.680;23.310;2023-03-31T12:02:22;5.73;;;3.27;;
5379;SDS011;2713;42.680;23.310;2023-03-31T12:05:00;4.67;;;2.93;;
5379;SDS011;2713;42.680;23.310;2023-03-31T12:07:30;4.77;;;3.13;;
5379;SDS011;2713;42.680;23.310;2023-03-31T12:10:03;3.10;;;2.90;;
5379;SDS011;2713;42.680;23.310;2023-03-31T12:12:38;5.93;;;3.43;;
5379;SDS011;2713;42.680;23.310;2023-03-31T12:15:12;3.93;;;3.30;;
5379;SDS011;2713;42.680;23.310;2023-03-31T12:17:46;6.30;;;2.60;;
5379;SDS011;2713;42.680;23.310;2023-03-31T12:20:22;8.20;;;3.10;;
5379;SDS011;2713;42.680;23.310;2023-03-31T12:22:54;6.00;;;2.93;;
5379;SDS011;2713;42.680;23.310;2023-03-31T12:25:23;5.40;;;2.37;;
5379;SDS011;2713;42.680;23.310;2023-03-31T12:27:51;3.20;;;2.50;;
5379;SDS011;2713;42.680;23.310;2023-03-31T12:30:19;5.57;;;2.80;;
5379;SDS011;2713;42.680;23.310;2023-03-31T12:32:55;7.57;;;2.53;;
5379;SDS011;2713;42.680;23.310;2023-03-31T12:35:31;4.10;;;2.67;;
5379;SDS011;2713;42.680;23.310;2023-03-31T12:38:13;6.03;;;3.00;;
5379;SDS011;2713;42.680;23.310;2023-03-31T12:40:56;4.83;;;2.73;;
5379;SDS011;2713;42.680;23.310;2023-03-31T12:43:36;5.07;;;4.60;;
5379;SDS011;2713;42.680;23.310;2023-03-31T12:46:23;3.40;;;3.00;;
5379;SDS011;2713;42.680;23.310;2023-03-31T12:49:14;4.20;;;2.60;;
5379;SDS011;2713;42.680;23.310;2023-03-31T12:51:58;3.70;;;2.97;;
5379;SDS011;2713;42.680;23.310;2023-03-31T12:54:36;5.60;;;2.70;;
5379;SDS011;2713;42.680;23.310;2023-03-31T12:57:27;3.70;;;3.10;;
5379;SDS011;2713;42.680;23.310;2023-03-31T13:02:47;4.50;;;2.90;;
5379;SDS011;2713;42.680;23.310;2023-03-31T13:08:13;3.50;;;2.77;;
5379;SDS011;2713;42.680;23.310;2023-03-31T13:11:16;3.33;;;2.20;;
5379;SDS011;2713;42.680;23.310;2023-03-31T13:13:44;5.63;;;2.60;;
5379;SDS011;2713;42.680;23.310;2023-03-31T13:16:18;8.83;;;3.60;;
5379;SDS011;2713;42.680;23.310;2023-03-31T13:18:49;4.77;;;2.80;;
5379;SDS011;2713;42.680;23.310;2023-03-31T13:21:16;5.57;;;3.13;;
5379;SDS011;2713;42.680;23.310;2023-03-31T13:23:45;3.77;;;2.70;;
5379;SDS011;2713;42.680;23.310;2023-03-31T13:29:09;3.80;;;2.57;;
5379;SDS011;2713;42.680;23.310;2023-03-31T13:32:05;5.00;;;4.50;;
5379;SDS011;2713;42.680;23.310;2023-03-31T13:34:55;8.30;;;3.50;;
5379;SDS011;2713;42.680;23.310;2023-03-31T13:40:40;6.80;;;2.80;;
5379;SDS011;2713;42.680;23.310;2023-03-31T13:43:42;13.70;;;3.00;;
5379;SDS011;2713;42.680;23.310;2023-03-31T13:49:23;4.20;;;2.93;;
5379;SDS011;2713;42.680;23.310;2023-03-31T13:52:08;6.30;;;2.63;;
5379;SDS011;2713;42.680;23.310;2023-03-31T13:54:52;2.80;;;2.60;;
5379;SDS011;2713;42.680;23.310;2023-03-31T14:04:03;3.30;;;2.70;;
5379;SDS011;2713;42.680;23.310;2023-03-31T14:06:43;5.20;;;2.90;;
5379;SDS011;2713;42.680;23.310;2023-03-31T14:09:18;4.27;;;2.77;;
5379;SDS011;2713;42.680;23.310;2023-03-31T14:11:50;3.00;;;2.40;;
5379;SDS011;2713;42.680;23.310;2023-03-31T14:14:18;2.97;;;2.27;;
5379;SDS011;2713;42.680;23.310;2023-03-31T14:16:46;3.87;;;2.80;;
5379;SDS011;2713;42.680;23.310;2023-03-31T14:19:22;4.63;;;2.83;;
5379;SDS011;2713;42.680;23.310;2023-03-31T14:22:10;4.50;;;3.30;;
5379;SDS011;2713;42.680;23.310;2023-03-31T14:24:47;3.30;;;2.40;;
5379;SDS011;2713;42.680;23.310;2023-03-31T14:27:22;5.77;;;3.07;;
5379;SDS011;2713;42.680;23.310;2023-03-31T14:30:09;3.60;;;2.60;;
5379;SDS011;2713;42.680;23.310;2023-03-31T14:32:43;4.10;;;2.87;;
5379;SDS011;2713;42.680;23.310;2023-03-31T14:35:21;4.47;;;3.83;;
5379;SDS011;2713;42.680;23.310;2023-03-31T14:37:54;6.43;;;3.70;;
5379;SDS011;2713;42.680;23.310;2023-03-31T14:40:22;6.00;;;3.17;;
5379;SDS011;2713;42.680;23.310;2023-03-31T14:42:49;5.30;;;2.70;;
5379;SDS011;2713;42.680;23.310;2023-03-31T14:45:19;3.17;;;2.93;;
5379;SDS011;2713;42.680;23.310;2023-03-31T14:47:52;3.13;;;2.53;;
5379;SDS011;2713;42.680;23.310;2023-03-31T14:50:19;3.73;;;3.40;;
5379;SDS011;2713;42.680;23.310;2023-03-31T14:52:47;9.33;;;5.20;;
5379;SDS011;2713;42.680;23.310;2023-03-31T14:55:15;5.10;;;3.20;;
5379;SDS011;2713;42.680;23.310;2023-03-31T14:57:43;6.43;;;3.53;;
5379;SDS011;2713;42.680;23.310;2023-03-31T15:00:13;5.30;;;3.77;;
5379;SDS011;2713;42.680;23.310;2023-03-31T15:02:44;5.20;;;3.73;;
5379;SDS011;2713;42.680;23.310;2023-03-31T15:05:17;4.40;;;4.00;;
5379;SDS011;2713;42.680;23.310;2023-03-31T15:07:48;5.97;;;3.83;;
5379;SDS011;2713;42.680;23.310;2023-03-31T15:10:15;7.07;;;4.20;;
5379;SDS011;2713;42.680;23.310;2023-03-31T15:12:45;4.63;;;3.60;;
5379;SDS011;2713;42.680;23.310;2023-03-31T15:15:13;4.80;;;3.47;;
5379;SDS011;2713;42.680;23.310;2023-03-31T15:17:41;5.83;;;3.20;;
5379;SDS011;2713;42.680;23.310;2023-03-31T15:20:27;4.93;;;3.20;;
5379;SDS011;2713;42.680;23.310;2023-03-31T15:22:56;9.93;;;3.40;;
5379;SDS011;2713;42.680;23.310;2023-03-31T15:25:25;8.23;;;4.27;;
5379;SDS011;2713;42.680;23.310;2023-03-31T15:27:59;5.20;;;4.30;;
5379;SDS011;2713;42.680;23.310;2023-03-31T15:30:30;8.30;;;5.27;;
5379;SDS011;2713;42.680;23.310;2023-03-31T15:32:57;9.03;;;4.53;;
5379;SDS011;2713;42.680;23.310;2023-03-31T15:35:27;6.43;;;4.10;;
5379;SDS011;2713;42.680;23.310;2023-03-31T15:37:57;4.93;;;3.13;;
5379;SDS011;2713;42.680;23.310;2023-03-31T15:40:26;10.70;;;3.70;;
5379;SDS011;2713;42.680;23.310;2023-03-31T15:42:54;5.83;;;3.67;;
5379;SDS011;2713;42.680;23.310;2023-03-31T15:45:35;8.00;;;3.33;;
5379;SDS011;2713;42.680;23.310;2023-03-31T15:48:04;6.13;;;3.00;;
5379;SDS011;2713;42.680;23.310;2023-03-31T15:50:33;5.23;;;3.00;;
5379;SDS011;2713;42.680;23.310;2023-03-31T15:53:00;5.13;;;3.33;;
5379;SDS011;2713;42.680;23.310;2023-03-31T15:55:28;5.37;;;3.00;;